createdAt,value
2022-08-20T00:02:16.893Z,98823.25
2022-08-20T00:04:45.727Z,98812.00
2022-08-20T00:07:14.723Z,98814.38
2022-08-20T00:09:44.094Z,98805.84
2022-08-20T00:12:14.410Z,98808.22
2022-08-20T00:14:42.875Z,98809.78
2022-08-20T00:17:12.612Z,98811.34
2022-08-20T00:19:41.125Z,98799.66
2022-08-20T00:22:09.782Z,98802.03
2022-08-20T00:24:38.483Z,98802.78
2022-08-20T00:27:07.116Z,98797.09
2022-08-20T00:29:35.555Z,98795.84
2022-08-20T00:32:04.371Z,98804.66
2022-08-20T00:34:34.365Z,98803.41
2022-08-20T00:37:03.170Z,98796.16
2022-08-20T00:39:31.834Z,98798.13
2022-08-20T00:42:00.492Z,98798.91
2022-08-20T00:44:29.306Z,98803.31
2022-08-20T00:46:57.744Z,98792.09
2022-08-20T00:49:29.154Z,98799.72
2022-08-20T00:52:04.701Z,98803.31
2022-08-20T00:54:39.743Z,98796.97
2022-08-20T00:57:13.792Z,98792.59
2022-08-20T00:59:44.376Z,98789.41
2022-08-20T01:02:17.702Z,98790.22
2022-08-20T01:04:49.151Z,98786.69
2022-08-20T01:07:20.556Z,98776.22
2022-08-20T01:09:59.098Z,98783.09
2022-08-20T01:12:30.131Z,98781.94
2022-08-20T01:15:00.867Z,98771.56
2022-08-20T01:17:36.417Z,98759.16
2022-08-20T01:20:12.227Z,98744.72
2022-08-20T01:23:07.361Z,98718.25
2022-08-20T01:25:46.758Z,98715.00
2022-08-20T01:28:18.779Z,98713.81
2022-08-20T01:30:47.328Z,98712.56
2022-08-20T01:33:15.697Z,98709.31
2022-08-20T01:35:44.517Z,98709.28
2022-08-20T01:38:13.948Z,98697.22
2022-08-20T01:41:30.991Z,98701.91
2022-08-20T01:44:00.068Z,98711.56
2022-08-20T01:46:35.671Z,98709.16
2022-08-20T01:49:12.454Z,98719.94
2022-08-20T01:51:44.390Z,98706.34
2022-08-20T01:54:13.768Z,98701.91
2022-08-20T01:56:57.612Z,98696.66
2022-08-20T01:59:26.274Z,98699.91
2022-08-20T02:01:55.438Z,98688.66
2022-08-20T02:04:25.020Z,98692.28
2022-08-20T02:06:57.944Z,98685.84
2022-08-20T02:09:28.727Z,98682.63
2022-08-20T02:11:58.887Z,98682.97
2022-08-20T02:14:30.498Z,98673.31
2022-08-20T02:16:59.893Z,98669.75
2022-08-20T02:19:34.615Z,98679.38
2022-08-20T02:22:10.060Z,98685.78
2022-08-20T02:24:38.517Z,98689.06
2022-08-20T02:27:08.374Z,98696.28
2022-08-20T02:29:36.882Z,98700.72
2022-08-20T02:32:31.188Z,98706.78
2022-08-20T02:34:56.145Z,98711.19
2022-08-20T02:37:24.575Z,98711.63
2022-08-20T02:39:53.105Z,98709.63
2022-08-20T02:42:22.916Z,98712.09
2022-08-20T02:44:51.921Z,98711.69
2022-08-20T02:47:20.355Z,98707.72
2022-08-20T02:49:48.795Z,98712.50
2022-08-20T02:52:17.269Z,98704.81
2022-08-20T02:54:45.757Z,98696.78
2022-08-20T02:57:15.480Z,98697.97
2022-08-20T02:59:45.696Z,98699.91
2022-08-20T03:02:14.411Z,98697.91
2022-08-20T03:04:43.995Z,98692.22
2022-08-20T03:07:13.070Z,98687.38
2022-08-20T03:09:42.389Z,98699.34
2022-08-20T03:12:11.215Z,98697.28
2022-08-20T03:14:39.700Z,98700.47
2022-08-20T03:17:09.684Z,98697.22
2022-08-20T03:19:38.240Z,98702.84
2022-08-20T03:22:07.137Z,98695.97
2022-08-20T03:24:35.535Z,98705.56
2022-08-20T03:27:03.906Z,98701.16
2022-08-20T03:29:32.325Z,98710.38
2022-08-20T03:32:03.009Z,98721.59
2022-08-20T03:34:36.386Z,98716.81
2022-08-20T03:37:04.874Z,98712.00
2022-08-20T03:39:33.320Z,98718.00
2022-08-20T03:42:01.735Z,98721.59
2022-08-20T03:44:30.212Z,98717.09
2022-08-20T03:46:58.680Z,98730.34
2022-08-20T03:49:27.074Z,98729.88
2022-08-20T03:51:58.117Z,98727.84
2022-08-20T03:54:31.802Z,98723.06
2022-08-20T03:57:01.503Z,98726.66
2022-08-20T03:59:33.114Z,98727.09
2022-08-20T04:02:02.183Z,98732.34
2022-08-20T04:04:30.716Z,98744.84
2022-08-20T04:07:00.525Z,98751.28
2022-08-20T04:09:30.127Z,98745.28
2022-08-20T04:12:00.369Z,98741.25
2022-08-20T04:14:29.216Z,98742.06
2022-08-20T04:16:58.634Z,98737.28
2022-08-20T04:19:30.121Z,98742.47
2022-08-20T04:22:03.045Z,98752.44
2022-08-20T04:24:32.351Z,98755.63
2022-08-20T04:27:05.014Z,98759.59
2022-08-20T04:29:35.562Z,98772.78
2022-08-20T04:32:06.138Z,98777.19
2022-08-20T04:34:36.446Z,98780.00
2022-08-20T04:37:16.744Z,98775.59
2022-08-20T04:40:06.420Z,98772.41
2022-08-20T04:42:38.542Z,98779.66
2022-08-20T04:45:09.784Z,98774.47
2022-08-20T04:47:38.187Z,98778.88
2022-08-20T04:50:10.902Z,98775.28
2022-08-20T04:52:40.886Z,98772.91
2022-08-20T04:55:10.939Z,98766.09
2022-08-20T04:57:39.418Z,98758.50
2022-08-20T05:00:14.265Z,98763.66
2022-08-20T05:02:43.223Z,98766.53
2022-08-20T05:05:12.497Z,98784.59
2022-08-20T05:07:46.937Z,98782.59
2022-08-20T05:10:18.472Z,98776.22
2022-08-20T05:12:56.693Z,98780.22
2022-08-20T05:15:26.375Z,98787.78
2022-08-20T05:18:00.759Z,98789.31
2022-08-20T05:20:32.683Z,98803.81
2022-08-20T05:23:03.430Z,98800.63
2022-08-20T05:25:32.862Z,98805.06
2022-08-20T05:28:09.506Z,98793.88
2022-08-20T05:30:40.492Z,98797.13
2022-08-20T05:33:10.713Z,98797.22
2022-08-20T05:35:41.047Z,98794.09
2022-08-20T05:38:15.349Z,98795.03
2022-08-20T05:40:44.209Z,98792.78
2022-08-20T05:43:12.863Z,98790.19
2022-08-20T05:45:43.323Z,98789.66
2022-08-20T05:48:14.525Z,98784.63
2022-08-20T05:50:46.531Z,98783.56
2022-08-20T05:53:16.773Z,98789.75
2022-08-20T05:55:46.028Z,98793.84
2022-08-20T05:58:20.732Z,98802.28
2022-08-20T06:00:50.426Z,98790.59
2022-08-20T06:03:36.677Z,98807.88
2022-08-20T06:06:17.980Z,98800.13
2022-08-20T06:08:56.719Z,98803.25
2022-08-20T06:11:25.105Z,98808.44
2022-08-20T06:13:53.559Z,98819.63
2022-08-20T06:16:22.050Z,98822.75
2022-08-20T06:18:58.115Z,98814.25
2022-08-20T06:21:26.869Z,98812.56
2022-08-20T06:23:58.414Z,98818.59
2022-08-20T06:26:31.124Z,98820.56
2022-08-20T06:28:59.808Z,98827.81
2022-08-20T06:31:28.445Z,98830.25
2022-08-20T06:33:57.326Z,98821.00
2022-08-20T06:36:26.216Z,98827.81
2022-08-20T06:38:56.282Z,98827.81
2022-08-20T06:41:30.954Z,98831.81
2022-08-20T06:44:06.608Z,98834.63
2022-08-20T06:46:36.188Z,98825.00
2022-08-20T06:49:05.377Z,98839.47
2022-08-20T06:51:34.227Z,98825.13
2022-08-20T06:54:05.164Z,98836.06
2022-08-20T06:56:33.719Z,98821.25
2022-08-20T06:59:02.220Z,98832.50
2022-08-20T07:01:30.636Z,98831.25
2022-08-20T07:04:00.431Z,98827.22
2022-08-20T07:06:29.168Z,98820.00
2022-08-20T07:08:57.838Z,98827.63
2022-08-20T07:11:28.893Z,98823.25
2022-08-20T07:13:59.590Z,98834.63
2022-08-20T07:16:28.671Z,98823.06
2022-08-20T07:18:58.320Z,98827.88
2022-08-20T07:21:26.850Z,98819.44
2022-08-20T07:23:55.291Z,98829.84
2022-08-20T07:26:24.596Z,98802.53
2022-08-20T07:28:54.575Z,98826.69
2022-08-20T07:31:42.109Z,98828.84
2022-08-20T07:34:11.797Z,98828.97
2022-08-20T07:36:40.624Z,98817.53
2022-08-20T07:39:09.363Z,98809.00
2022-08-20T07:41:38.175Z,98816.53
2022-08-20T07:44:07.930Z,98831.28
2022-08-20T07:46:36.528Z,98821.38
2022-08-20T07:49:09.943Z,98815.81
2022-08-20T07:51:38.353Z,98831.91
2022-08-20T07:54:07.151Z,98813.06
2022-08-20T07:56:35.572Z,98818.44
2022-08-20T07:59:05.314Z,98820.09
2022-08-20T08:01:35.295Z,98825.38
2022-08-20T08:04:04.626Z,98801.31
2022-08-20T08:06:33.934Z,98823.94
2022-08-20T08:09:08.045Z,98839.28
2022-08-20T08:11:40.291Z,98825.19
2022-08-20T08:14:11.215Z,98828.88
2022-08-20T08:16:45.304Z,98834.59
2022-08-20T08:19:16.435Z,98842.66
2022-08-20T08:21:45.409Z,98849.19
2022-08-20T08:24:19.923Z,98845.25
2022-08-20T08:26:50.834Z,98856.28
2022-08-20T08:29:19.469Z,98856.72
2022-08-20T08:31:49.426Z,98866.91
2022-08-20T08:34:17.989Z,98870.28
2022-08-20T08:36:46.430Z,98875.16
2022-08-20T08:39:14.814Z,98873.63
2022-08-20T08:41:48.539Z,98871.69
2022-08-20T08:44:23.311Z,98874.09
2022-08-20T08:46:57.845Z,98871.28
2022-08-20T08:49:37.636Z,98872.16
2022-08-20T08:52:14.823Z,98855.63
2022-08-20T08:54:48.963Z,98854.94
2022-08-20T08:57:17.668Z,98859.00
2022-08-20T09:00:04.000Z,98855.00
2022-08-20T09:02:38.862Z,98856.63
2022-08-20T09:05:17.784Z,98847.38
2022-08-20T09:07:54.263Z,98843.75
2022-08-20T09:10:23.536Z,98846.22
2022-08-20T09:12:52.611Z,98829.72
2022-08-20T09:15:22.319Z,98844.72
2022-08-20T09:17:52.157Z,98840.28
2022-08-20T09:20:22.949Z,98839.91
2022-08-20T09:22:56.122Z,98830.63
2022-08-20T09:25:25.319Z,98846.78
2022-08-20T09:27:53.769Z,98837.09
2022-08-20T09:30:23.343Z,98841.13
2022-08-20T09:32:53.344Z,98831.47
2022-08-20T09:35:22.066Z,98852.09
2022-08-20T09:37:52.319Z,98841.56
2022-08-20T09:40:21.781Z,98856.50
2022-08-20T09:42:51.439Z,98844.78
2022-08-20T09:45:21.261Z,98852.88
2022-08-20T09:47:54.822Z,98864.22
2022-08-20T09:50:36.101Z,98866.28
2022-08-20T09:53:06.767Z,98863.50
2022-08-20T09:55:39.083Z,98852.63
2022-08-20T09:58:17.478Z,98841.69
2022-08-20T10:00:46.003Z,98843.75
2022-08-20T10:03:14.388Z,98824.72
2022-08-20T10:05:44.781Z,98826.75
2022-08-20T10:08:14.571Z,98827.56
2022-08-20T10:10:43.380Z,98827.16
2022-08-20T10:13:13.346Z,98825.13
2022-08-20T10:15:46.694Z,98827.53
2022-08-20T10:18:15.175Z,98826.72
2022-08-20T10:20:45.032Z,98817.78
2022-08-20T10:23:13.500Z,98828.72
2022-08-20T10:25:43.460Z,98811.28
2022-08-20T10:28:11.949Z,98813.72
2022-08-20T10:30:40.325Z,98811.72
2022-08-20T10:33:08.760Z,98824.25
2022-08-20T10:35:37.141Z,98824.66
2022-08-20T10:38:06.888Z,98815.75
2022-08-20T10:40:35.311Z,98815.75
2022-08-20T10:43:03.926Z,98815.78
2022-08-20T10:45:32.412Z,98815.31
2022-08-20T10:48:01.191Z,98821.75
2022-08-20T10:50:30.557Z,98805.44
2022-08-20T10:52:59.618Z,98806.81
2022-08-20T10:55:32.020Z,98811.44
2022-08-20T10:58:00.458Z,98815.50
2022-08-20T11:00:29.110Z,98819.59
2022-08-20T11:02:57.581Z,98819.72
2022-08-20T11:05:26.020Z,98803.66
2022-08-20T11:07:56.674Z,98800.69
2022-08-20T11:10:30.248Z,98809.50
2022-08-20T11:12:58.980Z,98807.59
2022-08-20T11:15:27.555Z,98804.94
2022-08-20T11:17:56.666Z,98806.69
2022-08-20T11:20:26.746Z,98806.88
2022-08-20T11:22:55.818Z,98814.91
2022-08-20T11:25:26.187Z,98810.03
2022-08-20T11:27:58.295Z,98808.44
2022-08-20T11:30:31.052Z,98798.94
2022-08-20T11:33:00.597Z,98806.19
2022-08-20T11:35:49.968Z,98813.44
2022-08-20T11:38:20.095Z,98830.03
2022-08-20T11:40:48.829Z,98839.50
2022-08-20T11:43:18.778Z,98851.06
2022-08-20T11:45:50.816Z,98844.66
2022-08-20T11:48:19.724Z,98843.03
2022-08-20T11:50:49.740Z,98842.78
2022-08-20T11:53:18.298Z,98836.59
2022-08-20T11:55:48.131Z,98840.88
2022-08-20T11:58:18.338Z,98848.00
2022-08-20T12:00:46.802Z,98846.50
2022-08-20T12:03:15.418Z,98853.88
2022-08-20T12:05:46.886Z,98853.97
2022-08-20T12:08:27.509Z,98856.88
2022-08-20T12:10:58.489Z,98856.13
2022-08-20T12:13:46.579Z,98847.28
2022-08-20T12:16:17.367Z,98854.22
2022-08-20T12:18:46.682Z,98852.63
2022-08-20T12:21:15.553Z,98857.91
2022-08-20T12:23:43.958Z,98853.84
2022-08-20T12:26:12.400Z,98861.13
2022-08-20T12:28:42.189Z,98858.28
2022-08-20T12:31:10.779Z,98861.13
2022-08-20T12:33:39.236Z,98867.56
2022-08-20T12:36:08.307Z,98869.19
2022-08-20T12:38:36.697Z,98855.03
2022-08-20T12:41:05.191Z,98873.25
2022-08-20T12:43:33.663Z,98870.41
2022-08-20T12:46:03.504Z,98869.59
2022-08-20T12:48:31.902Z,98865.53
2022-08-20T12:51:00.418Z,98880.50
2022-08-20T12:53:28.838Z,98860.69
2022-08-20T12:55:57.223Z,98863.09
2022-08-20T12:58:25.919Z,98864.75
2022-08-20T13:00:54.437Z,98828.75
2022-08-20T13:03:24.185Z,98849.38
2022-08-20T13:05:52.695Z,98851.00
2022-08-20T13:08:21.156Z,98840.47
2022-08-20T13:10:49.757Z,98849.38
2022-08-20T13:13:20.381Z,98856.25
2022-08-20T13:15:51.622Z,98849.41
2022-08-20T13:18:20.772Z,98850.59
2022-08-20T13:20:50.979Z,98839.66
2022-08-20T13:23:19.482Z,98834.00
2022-08-20T13:25:47.920Z,98846.94
2022-08-20T13:28:16.332Z,98838.44
2022-08-20T13:30:44.831Z,98836.06
2022-08-20T13:33:13.244Z,98843.31
2022-08-20T13:35:41.854Z,98831.22
2022-08-20T13:38:11.727Z,98828.75
2022-08-20T13:40:40.162Z,98833.66
2022-08-20T13:43:12.045Z,98825.94
2022-08-20T13:45:41.538Z,98824.72
2022-08-20T13:48:15.132Z,98820.69
2022-08-20T13:50:46.862Z,98817.03
2022-08-20T13:53:17.627Z,98814.63
2022-08-20T13:55:46.871Z,98812.19
2022-08-20T13:58:15.361Z,98815.78
2022-08-20T14:00:43.806Z,98814.16
2022-08-20T14:03:12.449Z,98816.56
2022-08-20T14:05:42.779Z,98803.19
2022-08-20T14:08:14.555Z,98804.78
2022-08-20T14:10:47.188Z,98797.09
2022-08-20T14:13:21.230Z,98812.88
2022-08-20T14:15:50.106Z,98814.53
2022-08-20T14:18:19.424Z,98812.09
2022-08-20T14:20:48.114Z,98808.13
2022-08-20T14:23:17.297Z,98805.31
2022-08-20T14:25:50.581Z,98809.34
2022-08-20T14:28:21.936Z,98811.78
2022-08-20T14:30:52.809Z,98802.91
2022-08-20T14:33:22.663Z,98812.19
2022-08-20T14:35:51.187Z,98814.56
2022-08-20T14:38:19.604Z,98818.19
2022-08-20T14:40:50.624Z,98800.78
2022-08-20T14:43:19.700Z,98811.63
2022-08-20T14:45:48.179Z,98811.97
2022-08-20T14:48:16.807Z,98800.56
2022-08-20T14:50:45.321Z,98818.66
2022-08-20T14:53:13.905Z,98814.88
2022-08-20T14:55:42.384Z,98814.72
2022-08-20T14:58:16.991Z,98819.84
2022-08-20T15:00:45.755Z,98823.41
2022-08-20T15:03:14.556Z,98829.31
2022-08-20T15:05:44.055Z,98820.38
2022-08-20T15:08:12.585Z,98819.91
2022-08-20T15:10:42.257Z,98815.03
2022-08-20T15:13:12.098Z,98838.75
2022-08-20T15:15:41.518Z,98839.56
2022-08-20T15:18:10.243Z,98832.25
2022-08-20T15:20:39.285Z,98831.78
2022-08-20T15:23:07.922Z,98833.75
2022-08-20T15:25:38.220Z,98834.44
2022-08-20T15:28:10.237Z,98834.31
2022-08-20T15:30:43.232Z,98833.00
2022-08-20T15:33:12.395Z,98829.66
2022-08-20T15:35:40.908Z,98817.81
2022-08-20T15:38:09.667Z,98818.09
2022-08-20T15:40:38.635Z,98843.69
2022-08-20T15:43:07.768Z,98846.41
2022-08-20T15:45:39.864Z,98831.84
2022-08-20T15:48:15.327Z,98843.94
2022-08-20T15:51:04.217Z,98846.78
2022-08-20T15:53:41.190Z,98842.41
2022-08-20T15:56:42.386Z,98850.03
2022-08-20T15:59:26.516Z,98850.84
2022-08-20T16:02:08.730Z,98850.09
2022-08-20T16:05:10.830Z,98841.16
2022-08-20T16:07:54.766Z,98845.19
2022-08-20T16:10:32.276Z,98842.63
2022-08-20T16:13:04.616Z,98840.94
2022-08-20T16:15:36.877Z,98837.69
2022-08-20T16:18:11.530Z,98846.47
2022-08-20T16:20:47.992Z,98856.50
2022-08-20T16:23:20.802Z,98850.81
2022-08-20T16:26:04.447Z,98855.19
2022-08-20T16:28:40.955Z,98860.84
2022-08-20T16:31:24.482Z,98862.81
2022-08-20T16:34:25.722Z,98854.78
2022-08-20T16:37:04.449Z,98841.13
2022-08-20T16:39:41.716Z,98851.22
2022-08-20T16:42:11.862Z,98847.56
2022-08-20T16:44:45.879Z,98853.13
2022-08-20T16:47:20.204Z,98857.16
2022-08-20T16:49:58.551Z,98864.72
2022-08-20T16:52:27.103Z,98860.69
2022-08-20T16:54:55.729Z,98863.00
2022-08-20T16:57:24.225Z,98861.75
2022-08-20T17:00:08.086Z,98873.66
2022-08-20T17:02:36.475Z,98875.66
2022-08-20T17:05:07.349Z,98873.97
2022-08-20T17:07:46.404Z,98882.78
2022-08-20T17:10:21.757Z,98881.53
2022-08-20T17:12:56.154Z,98882.72
2022-08-20T17:15:30.209Z,98880.22
2022-08-20T17:17:59.085Z,98888.66
2022-08-20T17:20:29.262Z,98893.84
2022-08-20T17:23:14.766Z,98884.09
2022-08-20T17:25:43.237Z,98896.09
2022-08-20T17:28:17.259Z,98893.97
2022-08-20T17:30:47.471Z,98893.91
2022-08-20T17:33:30.443Z,98891.41
2022-08-20T17:36:03.323Z,98889.78
2022-08-20T17:38:39.523Z,98894.53
2022-08-20T17:41:17.354Z,98898.06
2022-08-20T17:43:46.748Z,98900.84
2022-08-20T17:46:18.750Z,98907.56
2022-08-20T17:48:49.589Z,98906.31
2022-08-20T17:51:22.905Z,98896.59
2022-08-20T17:53:57.629Z,98903.72
2022-08-20T17:56:30.822Z,98910.88
2022-08-20T17:59:06.823Z,98907.25
2022-08-20T18:01:38.926Z,98911.72
2022-08-20T18:04:07.570Z,98916.84
2022-08-20T18:06:50.407Z,98913.53
2022-08-20T18:09:32.337Z,98910.75
2022-08-20T18:12:30.806Z,98914.22
2022-08-20T18:15:08.166Z,98905.34
2022-08-20T18:18:06.169Z,98914.88
2022-08-20T18:21:15.473Z,98918.78
2022-08-20T18:23:50.079Z,98921.97
2022-08-20T18:26:26.375Z,98932.38
2022-08-20T18:28:59.859Z,98932.75
2022-08-20T18:31:32.772Z,98938.38
2022-08-20T18:34:13.205Z,98932.75
2022-08-20T18:36:42.499Z,98934.84
2022-08-20T18:39:29.581Z,98934.75
2022-08-20T18:42:02.524Z,98936.00
2022-08-20T18:44:41.013Z,98929.13
2022-08-20T18:47:23.252Z,98951.59
2022-08-20T18:50:06.507Z,98950.00
2022-08-20T18:52:48.331Z,98937.56
2022-08-20T18:55:32.631Z,98943.84
2022-08-20T18:58:04.008Z,98959.97
2022-08-20T19:00:40.739Z,98952.63
2022-08-20T19:03:21.405Z,98950.94
2022-08-20T19:06:21.422Z,98957.28
2022-08-20T19:08:54.657Z,98957.34
2022-08-20T19:12:05.993Z,98960.03
2022-08-20T19:15:01.166Z,98961.19
2022-08-20T19:18:02.918Z,98943.53
2022-08-20T19:20:35.198Z,98958.75
2022-08-20T19:23:10.137Z,98957.13
2022-08-20T19:25:44.242Z,98963.09
2022-08-20T19:28:24.329Z,98967.31
2022-08-20T19:30:53.993Z,98983.81
2022-08-20T19:33:43.261Z,98964.91
2022-08-20T19:36:16.764Z,98964.44
2022-08-20T19:38:51.984Z,98970.44
2022-08-20T19:41:28.136Z,98971.97
2022-08-20T19:44:03.015Z,98971.88
2022-08-20T19:46:37.640Z,98969.00
2022-08-20T19:49:20.563Z,98969.66
2022-08-20T19:52:09.277Z,98965.59
2022-08-20T19:54:48.981Z,98957.50
2022-08-20T19:57:20.030Z,98960.31
2022-08-20T20:00:00.074Z,98948.66
2022-08-20T20:02:32.818Z,98954.69
2022-08-20T20:05:05.216Z,98958.69
2022-08-20T20:07:42.723Z,98966.69
2022-08-20T20:10:32.151Z,98961.41
2022-08-20T20:13:10.490Z,98956.16
2022-08-20T20:15:41.648Z,98953.00
2022-08-20T20:18:11.700Z,98957.44
2022-08-20T20:20:55.737Z,98959.41
2022-08-20T20:23:45.709Z,98959.03
2022-08-20T20:26:20.878Z,98965.03
2022-08-20T20:28:53.959Z,98958.59
2022-08-20T20:31:29.752Z,98959.78
2022-08-20T20:34:03.378Z,98950.19
2022-08-20T20:36:36.719Z,98955.91
2022-08-20T20:39:12.417Z,98940.31
2022-08-20T20:41:53.614Z,98938.25
2022-08-20T20:44:25.917Z,98950.63
2022-08-20T20:47:01.100Z,98948.13
2022-08-20T20:49:32.615Z,98943.59
2022-08-20T20:52:04.105Z,98937.00
2022-08-20T20:54:42.114Z,98950.41
2022-08-20T20:57:35.322Z,98953.03
2022-08-20T21:00:12.687Z,98954.78
2022-08-20T21:02:42.883Z,98952.69
2022-08-20T21:05:13.344Z,98953.34
2022-08-20T21:07:50.674Z,98958.66
2022-08-20T21:10:21.723Z,98963.38
2022-08-20T21:12:53.191Z,98953.59
2022-08-20T21:15:24.382Z,98959.44
2022-08-20T21:17:55.407Z,98966.25
2022-08-20T21:20:23.958Z,98965.03
2022-08-20T21:22:52.428Z,98972.28
2022-08-20T21:25:21.428Z,98976.75
2022-08-20T21:27:52.801Z,98966.59
2022-08-20T21:30:23.965Z,98968.84
2022-08-20T21:32:54.501Z,98979.16
2022-08-20T21:35:23.883Z,98985.09
2022-08-20T21:37:52.901Z,98972.59
2022-08-20T21:40:22.115Z,98985.72
2022-08-20T21:42:51.456Z,98985.25
2022-08-20T21:45:20.482Z,98988.41
2022-08-20T21:47:49.318Z,98981.16
2022-08-20T21:50:21.248Z,98971.00
2022-08-20T21:52:55.384Z,98967.75
2022-08-20T21:55:29.777Z,98969.19
2022-08-20T21:57:59.445Z,98965.00
2022-08-20T22:00:55.790Z,98953.81
2022-08-20T22:03:27.991Z,98956.91
2022-08-20T22:05:58.286Z,98956.78
2022-08-20T22:08:28.483Z,98963.09
2022-08-20T22:10:58.647Z,98956.94
2022-08-20T22:13:31.533Z,98958.00
2022-08-20T22:16:00.441Z,98957.06
2022-08-20T22:18:29.173Z,98960.94
2022-08-20T22:20:59.377Z,98961.16
2022-08-20T22:23:28.056Z,98957.09
2022-08-20T22:25:56.431Z,98953.34
2022-08-20T22:28:25.005Z,98953.22
2022-08-20T22:30:53.786Z,98947.53
2022-08-20T22:33:24.932Z,98932.59
2022-08-20T22:35:56.902Z,98935.28
2022-08-20T22:38:27.237Z,98936.34
2022-08-20T22:40:55.795Z,98938.22
2022-08-20T22:43:24.352Z,98942.06
2022-08-20T22:45:58.829Z,98934.38
2022-08-20T22:48:27.958Z,98932.72
2022-08-20T22:50:57.347Z,98938.69
2022-08-20T22:53:28.559Z,98939.38
2022-08-20T22:55:57.232Z,98935.78
2022-08-20T22:58:30.901Z,98930.53
2022-08-20T23:01:02.423Z,98928.44
2022-08-20T23:03:40.234Z,98944.88
2022-08-20T23:06:10.602Z,98922.03
2022-08-20T23:08:41.830Z,98913.97
2022-08-20T23:11:10.416Z,98916.06
2022-08-20T23:13:39.355Z,98914.47
2022-08-20T23:16:09.000Z,98907.69
2022-08-20T23:18:37.503Z,98913.75
2022-08-20T23:21:06.526Z,98908.50
2022-08-20T23:23:35.525Z,98916.91
2022-08-20T23:26:05.447Z,98917.81
2022-08-20T23:28:34.050Z,98916.06
2022-08-20T23:31:02.504Z,98923.91
2022-08-20T23:33:31.546Z,98920.63
2022-08-20T23:36:03.899Z,98918.19
2022-08-20T23:38:32.395Z,98918.91
2022-08-20T23:41:00.775Z,98908.50
2022-08-20T23:43:30.632Z,98908.50
2022-08-20T23:46:03.079Z,98901.75
2022-08-20T23:48:31.734Z,98911.44
2022-08-20T23:51:00.154Z,98908.75
2022-08-20T23:53:28.719Z,98910.84
2022-08-20T23:55:57.338Z,98913.41
2022-08-20T23:58:25.760Z,98914.34
